createdAt,value
2023-04-23T00:00:31.307Z,10.82
2023-04-23T00:01:05.745Z,11.70
2023-04-23T00:01:41.932Z,11.35
2023-04-23T00:02:17.730Z,11.65
2023-04-23T00:02:53.940Z,10.98
2023-04-23T00:03:29.259Z,10.98
2023-04-23T00:04:05.124Z,11.32
2023-04-23T00:04:40.669Z,10.50
2023-04-23T00:05:14.933Z,10.85
2023-04-23T00:05:51.664Z,11.45
2023-04-23T00:06:26.821Z,10.70
2023-04-23T00:07:01.189Z,10.85
2023-04-23T00:07:36.274Z,11.93
2023-04-23T00:08:11.197Z,10.75
2023-04-23T00:08:45.539Z,10.88
2023-04-23T00:09:21.109Z,10.98
2023-04-23T00:09:58.453Z,10.52
2023-04-23T00:10:33.198Z,10.82
2023-04-23T00:11:08.165Z,11.15
2023-04-23T00:11:43.161Z,10.82
2023-04-23T00:12:17.453Z,10.73
2023-04-23T00:12:58.056Z,10.88
2023-04-23T00:13:33.651Z,10.95
2023-04-23T00:14:06.999Z,10.95
2023-04-23T00:14:42.788Z,10.63
2023-04-23T00:15:17.728Z,10.82
2023-04-23T00:15:53.791Z,11.23
2023-04-23T00:16:30.106Z,11.35
2023-04-23T00:17:05.067Z,11.73
2023-04-23T00:17:40.224Z,11.13
2023-04-23T00:18:14.331Z,11.38
2023-04-23T00:18:48.055Z,10.57
2023-04-23T00:19:22.739Z,12.00
2023-04-23T00:19:56.389Z,11.15
2023-04-23T00:20:29.922Z,10.18
2023-04-23T00:21:05.469Z,10.90
2023-04-23T00:21:38.594Z,10.25
2023-04-23T00:22:11.809Z,11.00
2023-04-23T00:22:47.877Z,10.40
2023-04-23T00:23:23.765Z,10.73
2023-04-23T00:23:58.002Z,11.32
2023-04-23T00:24:35.031Z,10.82
2023-04-23T00:25:09.705Z,10.88
2023-04-23T00:25:43.251Z,12.13
2023-04-23T00:26:19.147Z,10.80
2023-04-23T00:26:54.430Z,11.75
2023-04-23T00:27:29.263Z,10.63
2023-04-23T00:28:03.425Z,10.48
2023-04-23T00:28:36.883Z,11.10
2023-04-23T00:29:11.099Z,11.57
2023-04-23T00:29:46.894Z,10.63
2023-04-23T00:30:21.756Z,11.55
2023-04-23T00:30:57.491Z,11.30
2023-04-23T00:31:32.195Z,12.32
2023-04-23T00:32:06.481Z,11.65
2023-04-23T00:32:39.913Z,11.45
2023-04-23T00:33:15.250Z,10.98
2023-04-23T00:33:49.556Z,10.80
2023-04-23T00:34:23.918Z,10.50
2023-04-23T00:34:58.717Z,10.45
2023-04-23T00:35:32.508Z,10.90
2023-04-23T00:36:07.737Z,11.07
2023-04-23T00:36:42.518Z,11.10
2023-04-23T00:37:16.539Z,11.02
2023-04-23T00:37:51.234Z,11.27
2023-04-23T00:38:26.753Z,9.50
2023-04-23T00:39:00.955Z,11.30
2023-04-23T00:39:36.525Z,10.93
2023-04-23T00:40:11.780Z,10.73
2023-04-23T00:40:45.562Z,10.48
2023-04-23T00:41:21.977Z,10.85
2023-04-23T00:41:57.924Z,11.35
2023-04-23T00:42:31.817Z,11.27
2023-04-23T00:43:05.290Z,11.48
2023-04-23T00:43:41.971Z,11.55
2023-04-23T00:44:15.792Z,10.55
2023-04-23T00:44:49.876Z,10.48
2023-04-23T00:45:23.723Z,10.93
2023-04-23T00:46:00.394Z,11.18
2023-04-23T00:46:33.982Z,12.93
2023-04-23T00:47:08.091Z,10.85
2023-04-23T00:47:42.630Z,11.15
2023-04-23T00:48:16.424Z,10.35
2023-04-23T00:48:50.410Z,10.93
2023-04-23T00:49:25.677Z,10.18
2023-04-23T00:50:01.075Z,11.70
2023-04-23T00:50:36.020Z,10.35
2023-04-23T00:51:14.160Z,11.23
2023-04-23T00:51:48.340Z,10.85
2023-04-23T00:52:22.192Z,10.57
2023-04-23T00:52:58.314Z,11.52
2023-04-23T00:53:32.512Z,11.23
2023-04-23T00:54:07.944Z,11.13
2023-04-23T00:54:43.986Z,10.20
2023-04-23T00:55:18.192Z,12.15
2023-04-23T00:55:52.146Z,10.93
2023-04-23T00:56:27.894Z,11.38
2023-04-23T00:57:01.532Z,10.48
2023-04-23T00:57:36.057Z,10.75
2023-04-23T00:58:11.020Z,11.15
2023-04-23T00:58:44.619Z,11.77
2023-04-23T00:59:18.327Z,11.95
2023-04-23T00:59:52.955Z,11.32
2023-04-23T01:00:27.101Z,10.63
2023-04-23T01:01:03.480Z,9.77
2023-04-23T01:01:38.319Z,11.57
2023-04-23T01:02:11.884Z,10.48
2023-04-23T01:02:47.910Z,11.63
2023-04-23T01:03:24.971Z,10.70
2023-04-23T01:03:59.963Z,10.88
2023-04-23T01:04:33.970Z,10.25
2023-04-23T01:05:10.250Z,12.50
2023-04-23T01:05:45.902Z,10.25
2023-04-23T01:06:20.169Z,10.40
2023-04-23T01:06:53.881Z,10.35
2023-04-23T01:07:30.209Z,10.27
2023-04-23T01:08:04.260Z,10.82
2023-04-23T01:08:41.361Z,11.38
2023-04-23T01:09:16.111Z,10.60
2023-04-23T01:09:52.351Z,10.63
2023-04-23T01:10:26.860Z,10.20
2023-04-23T01:11:00.784Z,11.00
2023-04-23T01:11:36.242Z,11.05
2023-04-23T01:12:10.003Z,10.77
2023-04-23T01:12:43.213Z,11.95
2023-04-23T01:13:18.321Z,10.00
2023-04-23T01:13:51.970Z,11.57
2023-04-23T01:14:25.147Z,11.73
2023-04-23T01:15:00.033Z,10.55
2023-04-23T01:15:35.793Z,10.15
2023-04-23T01:16:12.135Z,10.13
2023-04-23T01:16:45.738Z,10.68
2023-04-23T01:17:18.534Z,11.05
2023-04-23T01:17:54.675Z,10.82
2023-04-23T01:18:29.750Z,10.20
2023-04-23T01:19:02.559Z,9.88
2023-04-23T01:19:38.273Z,10.73
2023-04-23T01:20:13.774Z,10.57
2023-04-23T01:20:49.802Z,10.05
2023-04-23T01:21:23.894Z,10.77
2023-04-23T01:22:01.704Z,10.88
2023-04-23T01:22:37.690Z,9.68
2023-04-23T01:23:12.441Z,10.73
2023-04-23T01:23:45.685Z,10.50
2023-04-23T01:24:18.733Z,10.52
2023-04-23T01:24:54.076Z,10.80
2023-04-23T01:25:27.750Z,10.32
2023-04-23T01:26:01.108Z,10.70
2023-04-23T01:26:35.679Z,10.55
2023-04-23T01:27:10.011Z,10.55
2023-04-23T01:27:44.516Z,10.05
2023-04-23T01:28:19.439Z,10.70
2023-04-23T01:28:55.072Z,9.63
2023-04-23T01:29:29.089Z,10.60
2023-04-23T01:30:06.823Z,10.60
2023-04-23T01:30:42.253Z,9.68
2023-04-23T01:31:15.250Z,10.52
2023-04-23T01:31:50.436Z,10.07
2023-04-23T01:32:24.974Z,9.63
2023-04-23T01:32:59.465Z,10.57
2023-04-23T01:33:35.014Z,10.38
2023-04-23T01:34:10.176Z,9.82
2023-04-23T01:34:44.876Z,10.10
2023-04-23T01:35:20.113Z,10.73
2023-04-23T01:35:55.904Z,9.25
2023-04-23T01:36:30.377Z,10.27
2023-04-23T01:37:06.573Z,10.50
2023-04-23T01:37:43.163Z,10.48
2023-04-23T01:38:17.488Z,10.45
2023-04-23T01:38:51.895Z,10.52
2023-04-23T01:39:26.696Z,10.55
2023-04-23T01:40:00.510Z,9.77
2023-04-23T01:40:35.085Z,10.18
2023-04-23T01:41:08.755Z,15.73
2023-04-23T01:41:43.228Z,13.45
2023-04-23T01:42:17.988Z,17.73
2023-04-23T01:42:51.750Z,19.38
2023-04-23T01:43:26.995Z,11.82
2023-04-23T01:44:01.863Z,13.68
2023-04-23T01:44:35.314Z,11.23
2023-04-23T01:45:12.319Z,11.13
2023-04-23T01:45:46.076Z,10.50
2023-04-23T01:46:19.222Z,10.95
2023-04-23T01:46:53.246Z,10.65
2023-04-23T01:47:28.125Z,9.18
2023-04-23T01:48:01.721Z,10.82
2023-04-23T01:48:36.333Z,9.13
2023-04-23T01:49:11.085Z,9.50
2023-04-23T01:49:45.915Z,10.27
2023-04-23T01:50:18.839Z,11.25
2023-04-23T01:50:54.316Z,10.65
2023-04-23T01:51:27.869Z,10.02
2023-04-23T01:52:01.215Z,10.13
2023-04-23T01:52:35.292Z,9.10
2023-04-23T01:53:10.508Z,9.77
2023-04-23T01:53:44.056Z,10.23
2023-04-23T01:54:19.704Z,10.00
2023-04-23T01:54:56.218Z,10.85
2023-04-23T01:55:30.157Z,9.85
2023-04-23T01:56:05.102Z,9.48
2023-04-23T01:56:38.652Z,11.30
2023-04-23T01:57:12.447Z,9.75
2023-04-23T01:57:46.910Z,9.77
2023-04-23T01:58:20.612Z,9.48
2023-04-23T01:58:56.606Z,9.73
2023-04-23T01:59:31.112Z,9.10
2023-04-23T02:00:08.448Z,9.93
2023-04-23T02:00:48.734Z,10.18
2023-04-23T02:01:23.762Z,10.32
2023-04-23T02:01:57.658Z,9.38
2023-04-23T02:02:31.178Z,9.00
2023-04-23T02:03:07.016Z,10.23
2023-04-23T02:03:40.934Z,9.65
2023-04-23T02:04:16.441Z,9.60
2023-04-23T02:04:54.167Z,9.75
2023-04-23T02:05:30.887Z,9.40
2023-04-23T02:06:05.278Z,10.10
2023-04-23T02:06:39.713Z,9.65
2023-04-23T02:07:13.654Z,10.10
2023-04-23T02:07:47.950Z,9.98
2023-04-23T02:08:25.059Z,10.05
2023-04-23T02:08:59.342Z,10.52
2023-04-23T02:09:34.001Z,10.23
2023-04-23T02:10:09.921Z,9.93
2023-04-23T02:10:45.104Z,11.40
2023-04-23T02:11:19.558Z,9.90
2023-04-23T02:11:55.448Z,9.27
2023-04-23T02:12:29.499Z,9.50
2023-04-23T02:13:04.105Z,10.00
2023-04-23T02:13:38.381Z,9.02
2023-04-23T02:14:11.502Z,9.25
2023-04-23T02:14:45.031Z,9.88
2023-04-23T02:15:20.684Z,9.55
2023-04-23T02:15:55.116Z,9.13
2023-04-23T02:16:28.744Z,9.65
2023-04-23T02:17:02.843Z,10.30
2023-04-23T02:17:37.221Z,9.60
2023-04-23T02:18:11.143Z,9.32
2023-04-23T02:18:44.753Z,10.80
2023-04-23T02:19:19.789Z,10.00
2023-04-23T02:19:55.948Z,9.70
2023-04-23T02:20:30.032Z,9.90
2023-04-23T02:21:05.526Z,10.63
2023-04-23T02:21:40.058Z,9.80
2023-04-23T02:22:12.856Z,9.68
2023-04-23T02:22:48.835Z,9.27
2023-04-23T02:23:24.318Z,9.38
2023-04-23T02:23:58.087Z,8.95
2023-04-23T02:24:32.380Z,9.30
2023-04-23T02:25:09.651Z,10.45
2023-04-23T02:25:44.053Z,10.38
2023-04-23T02:26:17.299Z,9.93
2023-04-23T02:26:51.535Z,9.63
2023-04-23T02:27:25.457Z,11.23
2023-04-23T02:28:00.662Z,9.73
2023-04-23T02:28:34.176Z,9.25
2023-04-23T02:29:08.644Z,9.32
2023-04-23T02:29:42.083Z,9.85
2023-04-23T02:30:16.001Z,9.10
2023-04-23T02:30:49.507Z,9.20
2023-04-23T02:31:23.579Z,9.20
2023-04-23T02:32:00.081Z,10.10
2023-04-23T02:32:33.331Z,9.60
2023-04-23T02:33:09.065Z,9.35
2023-04-23T02:33:43.647Z,9.85
2023-04-23T02:34:16.839Z,9.45
2023-04-23T02:34:51.112Z,9.75
2023-04-23T02:35:26.324Z,9.93
2023-04-23T02:36:00.103Z,9.70
2023-04-23T02:36:33.624Z,10.00
2023-04-23T02:37:08.580Z,10.20
2023-04-23T02:37:43.182Z,10.35
2023-04-23T02:38:17.073Z,9.55
2023-04-23T02:38:53.337Z,9.45
2023-04-23T02:39:27.100Z,9.77
2023-04-23T02:39:59.958Z,10.25
2023-04-23T02:40:34.026Z,10.63
2023-04-23T02:41:08.354Z,11.10
2023-04-23T02:41:42.166Z,10.10
2023-04-23T02:42:16.385Z,10.00
2023-04-23T02:42:50.784Z,9.45
2023-04-23T02:43:25.706Z,9.60
2023-04-23T02:44:00.306Z,9.38
2023-04-23T02:44:34.351Z,9.80
2023-04-23T02:45:08.184Z,9.98
2023-04-23T02:45:42.236Z,9.52
2023-04-23T02:46:17.491Z,9.38
2023-04-23T02:46:50.664Z,9.82
2023-04-23T02:47:25.660Z,10.45
2023-04-23T02:47:59.474Z,9.75
2023-04-23T02:48:34.178Z,10.82
2023-04-23T02:49:09.290Z,10.02
2023-04-23T02:49:43.458Z,10.50
2023-04-23T02:50:17.922Z,9.68
2023-04-23T02:50:52.724Z,9.52
2023-04-23T02:51:26.942Z,10.57
2023-04-23T02:52:00.352Z,9.65
2023-04-23T02:52:35.149Z,9.00
2023-04-23T02:53:08.894Z,9.35
2023-04-23T02:53:42.935Z,9.27
2023-04-23T02:54:18.830Z,10.02
2023-04-23T02:54:53.213Z,9.18
2023-04-23T02:55:32.092Z,9.65
2023-04-23T02:56:07.428Z,9.57
2023-04-23T02:56:41.830Z,9.73
2023-04-23T02:57:16.593Z,9.20
2023-04-23T02:57:51.454Z,9.43
2023-04-23T02:58:24.940Z,9.68
2023-04-23T02:59:01.679Z,10.07
2023-04-23T02:59:35.014Z,9.52
2023-04-23T03:00:09.444Z,10.13
2023-04-23T03:00:47.963Z,9.50
2023-04-23T03:01:21.546Z,10.05
2023-04-23T03:01:54.779Z,9.27
2023-04-23T03:02:29.426Z,9.98
2023-04-23T03:03:03.492Z,10.07
2023-04-23T03:03:38.327Z,10.70
2023-04-23T03:04:13.844Z,10.48
2023-04-23T03:04:47.618Z,9.73
2023-04-23T03:05:20.938Z,9.77
2023-04-23T03:05:56.433Z,9.27
2023-04-23T03:06:29.357Z,9.73
2023-04-23T03:07:03.192Z,9.10
2023-04-23T03:07:39.715Z,8.60
2023-04-23T03:08:13.472Z,9.05
2023-04-23T03:08:47.561Z,9.63
2023-04-23T03:09:24.602Z,8.90
2023-04-23T03:09:58.861Z,9.70
2023-04-23T03:10:32.320Z,8.02
2023-04-23T03:11:07.581Z,8.52
2023-04-23T03:11:41.919Z,9.10
2023-04-23T03:12:18.354Z,8.95
2023-04-23T03:12:52.328Z,8.70
2023-04-23T03:13:26.675Z,8.70
2023-04-23T03:14:00.954Z,8.82
2023-04-23T03:14:36.613Z,8.43
2023-04-23T03:15:10.501Z,8.63
2023-04-23T03:15:44.762Z,9.82
2023-04-23T03:16:19.066Z,9.43
2023-04-23T03:16:53.479Z,9.13
2023-04-23T03:17:27.252Z,8.98
2023-04-23T03:18:01.560Z,9.13
2023-04-23T03:18:36.252Z,8.50
2023-04-23T03:19:10.504Z,8.63
2023-04-23T03:19:44.764Z,9.43
2023-04-23T03:20:19.981Z,9.25
2023-04-23T03:20:53.642Z,8.75
2023-04-23T03:21:28.465Z,10.48
2023-04-23T03:22:04.504Z,9.05
2023-04-23T03:22:38.298Z,8.40
2023-04-23T03:23:13.236Z,9.32
2023-04-23T03:23:46.720Z,8.57
2023-04-23T03:24:22.629Z,8.90
2023-04-23T03:24:57.975Z,9.25
2023-04-23T03:25:33.640Z,9.60
2023-04-23T03:26:08.195Z,9.57
2023-04-23T03:26:42.446Z,9.90
2023-04-23T03:27:15.782Z,9.27
2023-04-23T03:27:49.807Z,9.60
2023-04-23T03:28:25.801Z,9.98
2023-04-23T03:29:00.285Z,8.82
2023-04-23T03:29:42.866Z,9.65
2023-04-23T03:30:17.276Z,8.52
2023-04-23T03:30:50.220Z,8.90
2023-04-23T03:31:23.497Z,8.07
2023-04-23T03:31:58.025Z,8.77
2023-04-23T03:32:33.110Z,8.77
2023-04-23T03:33:06.232Z,9.18
2023-04-23T03:33:40.853Z,9.55
2023-04-23T03:34:14.734Z,9.32
2023-04-23T03:34:49.954Z,8.88
2023-04-23T03:35:24.216Z,9.73
2023-04-23T03:36:00.524Z,9.73
2023-04-23T03:36:37.782Z,9.02
2023-04-23T03:37:11.502Z,8.57
2023-04-23T03:37:46.083Z,8.23
2023-04-23T03:38:20.270Z,31.45
2023-04-23T03:38:58.859Z,13.85
2023-04-23T03:39:40.116Z,11.02
2023-04-23T03:40:14.973Z,8.68
2023-04-23T03:40:50.972Z,8.52
2023-04-23T03:41:24.657Z,9.55
2023-04-23T03:41:58.392Z,9.10
2023-04-23T03:42:35.735Z,9.93
2023-04-23T03:43:09.419Z,8.88
2023-04-23T03:44:22.449Z,9.55
2023-04-23T03:44:57.136Z,9.65
2023-04-23T03:45:31.341Z,18.85
2023-04-23T03:46:07.305Z,11.50
2023-04-23T03:46:45.517Z,9.90
2023-04-23T03:47:22.296Z,9.38
2023-04-23T03:47:58.216Z,9.27
2023-04-23T03:48:30.813Z,9.40
2023-04-23T03:49:08.001Z,9.50
2023-04-23T03:49:43.697Z,10.48
2023-04-23T03:50:18.256Z,8.65
2023-04-23T03:50:58.588Z,8.23
2023-04-23T03:51:50.498Z,8.60
2023-04-23T03:52:26.368Z,9.40
2023-04-23T03:53:02.416Z,8.32
2023-04-23T03:53:58.254Z,8.07
2023-04-23T03:54:44.848Z,9.20
2023-04-23T03:55:24.390Z,9.18
2023-04-23T03:55:58.523Z,9.45
2023-04-23T03:56:32.976Z,8.85
2023-04-23T03:57:18.073Z,8.20
2023-04-23T03:58:13.000Z,7.63
2023-04-23T03:58:52.385Z,8.32
2023-04-23T03:59:25.624Z,8.65
2023-04-23T04:00:01.250Z,8.52
2023-04-23T04:00:38.139Z,8.05
2023-04-23T04:01:11.274Z,8.13
2023-04-23T04:01:44.320Z,7.72
2023-04-23T04:02:19.661Z,8.00
2023-04-23T04:02:53.683Z,8.15
2023-04-23T04:03:33.165Z,8.07
2023-04-23T04:04:08.227Z,8.30
2023-04-23T04:04:44.090Z,8.25
2023-04-23T04:05:18.066Z,8.00
2023-04-23T04:05:54.255Z,8.13
2023-04-23T04:06:27.569Z,7.80
2023-04-23T04:07:02.792Z,7.93
2023-04-23T04:07:37.890Z,7.68
2023-04-23T04:08:11.635Z,7.53
2023-04-23T04:08:45.633Z,7.47
2023-04-23T04:09:19.900Z,8.45
2023-04-23T04:09:54.545Z,8.15
2023-04-23T04:10:31.457Z,7.40
2023-04-23T04:11:06.818Z,8.77
2023-04-23T04:11:40.159Z,7.65
2023-04-23T04:12:13.993Z,7.82
2023-04-23T04:12:51.961Z,7.72
2023-04-23T04:13:25.539Z,7.18
2023-04-23T04:13:59.369Z,9.20
2023-04-23T04:14:33.841Z,7.47
2023-04-23T04:15:10.477Z,8.05
2023-04-23T04:15:45.003Z,6.78
2023-04-23T04:16:18.937Z,8.52
2023-04-23T04:16:52.281Z,8.32
2023-04-23T04:17:26.914Z,7.60
2023-04-23T04:18:01.476Z,8.02
2023-04-23T04:18:36.655Z,7.38
2023-04-23T04:19:12.316Z,7.80
2023-04-23T04:19:46.239Z,7.72
2023-04-23T04:20:20.119Z,7.20
2023-04-23T04:20:56.077Z,7.88
2023-04-23T04:21:29.181Z,7.80
2023-04-23T04:22:04.328Z,7.68
2023-04-23T04:22:39.191Z,7.85
2023-04-23T04:23:13.341Z,7.78
2023-04-23T04:23:48.436Z,7.82
2023-04-23T04:24:26.410Z,8.20
2023-04-23T04:25:00.635Z,7.40
2023-04-23T04:25:35.610Z,8.38
2023-04-23T04:26:10.326Z,8.05
2023-04-23T04:26:46.114Z,7.10
2023-04-23T04:27:20.052Z,8.18
2023-04-23T04:27:55.832Z,7.97
2023-04-23T04:28:30.237Z,8.38
2023-04-23T04:29:03.982Z,8.18
2023-04-23T04:29:40.973Z,7.68
2023-04-23T04:30:15.493Z,8.00
2023-04-23T04:30:50.460Z,7.50
2023-04-23T04:31:26.390Z,7.68
2023-04-23T04:32:02.115Z,7.47
2023-04-23T04:32:36.605Z,7.85
2023-04-23T04:33:11.089Z,7.82
2023-04-23T04:33:47.014Z,8.20
2023-04-23T04:34:20.916Z,7.75
2023-04-23T04:34:54.172Z,8.05
2023-04-23T04:35:28.870Z,7.78
2023-04-23T04:36:02.801Z,8.10
2023-04-23T04:36:36.546Z,8.18
2023-04-23T04:37:12.106Z,8.38
2023-04-23T04:37:45.869Z,9.32
2023-04-23T04:38:20.656Z,8.10
2023-04-23T04:38:58.383Z,8.70
2023-04-23T04:39:32.884Z,8.68
2023-04-23T04:40:08.218Z,7.85
2023-04-23T04:40:42.643Z,8.43
2023-04-23T04:41:15.899Z,7.75
2023-04-23T04:41:49.694Z,7.80
2023-04-23T04:42:26.373Z,7.78
2023-04-23T04:43:01.357Z,8.40
2023-04-23T04:43:34.654Z,7.57
2023-04-23T04:44:08.913Z,8.95
2023-04-23T04:44:44.176Z,8.40
2023-04-23T04:45:18.977Z,7.32
2023-04-23T04:45:52.412Z,8.18
2023-04-23T04:46:26.585Z,8.32
2023-04-23T04:47:01.820Z,8.05
2023-04-23T04:47:35.031Z,8.50
2023-04-23T04:48:08.538Z,8.55
2023-04-23T04:48:41.544Z,8.52
2023-04-23T04:49:20.169Z,8.32
2023-04-23T04:49:53.670Z,7.95
2023-04-23T04:50:27.917Z,7.88
2023-04-23T04:51:02.414Z,8.35
2023-04-23T04:51:36.752Z,8.02
2023-04-23T04:52:11.164Z,8.13
2023-04-23T04:52:46.326Z,8.85
2023-04-23T04:53:20.042Z,8.35
2023-04-23T04:53:57.303Z,7.95
2023-04-23T04:54:31.687Z,8.63
2023-04-23T04:55:07.288Z,8.10
2023-04-23T04:55:42.525Z,8.23
2023-04-23T04:56:17.931Z,8.27
2023-04-23T04:56:51.354Z,7.95
2023-04-23T04:57:24.624Z,7.70
2023-04-23T04:57:59.382Z,8.18
2023-04-23T04:58:32.772Z,7.82
2023-04-23T04:59:07.667Z,8.75
2023-04-23T04:59:43.739Z,7.55
2023-04-23T05:00:23.388Z,7.60
2023-04-23T05:00:59.331Z,7.25
2023-04-23T05:01:34.231Z,8.25
2023-04-23T05:02:08.759Z,7.60
2023-04-23T05:02:42.470Z,7.03
2023-04-23T05:03:18.052Z,7.38
2023-04-23T05:03:52.083Z,7.10
2023-04-23T05:04:25.489Z,7.20
2023-04-23T05:05:00.398Z,7.13
2023-04-23T05:05:34.423Z,7.18
2023-04-23T05:06:08.729Z,8.85
2023-04-23T05:06:42.615Z,8.40
2023-04-23T05:07:17.063Z,7.85
2023-04-23T05:07:50.881Z,7.82
2023-04-23T05:08:26.542Z,7.60
2023-04-23T05:09:00.183Z,7.90
2023-04-23T05:09:35.587Z,7.72
2023-04-23T05:10:10.655Z,7.55
2023-04-23T05:10:47.247Z,6.90
2023-04-23T05:11:22.024Z,6.97
2023-04-23T05:11:55.854Z,6.90
2023-04-23T05:12:29.687Z,7.00
2023-04-23T05:13:03.775Z,6.35
2023-04-23T05:13:37.941Z,6.32
2023-04-23T05:14:11.539Z,7.65
2023-04-23T05:14:46.300Z,7.07
2023-04-23T05:15:19.349Z,7.03
2023-04-23T05:15:52.706Z,7.72
2023-04-23T05:16:28.169Z,7.90
2023-04-23T05:17:04.465Z,7.72
2023-04-23T05:17:39.115Z,7.57
2023-04-23T05:18:14.261Z,7.30
2023-04-23T05:18:47.344Z,7.30
2023-04-23T05:19:21.611Z,7.78
2023-04-23T05:19:56.805Z,7.72
2023-04-23T05:20:30.819Z,7.55
2023-04-23T05:21:06.455Z,7.53
2023-04-23T05:21:40.195Z,7.80
2023-04-23T05:22:16.250Z,7.38
2023-04-23T05:22:50.328Z,8.13
2023-04-23T05:23:26.324Z,6.65
2023-04-23T05:24:01.310Z,7.90
2023-04-23T05:24:34.831Z,7.40
2023-04-23T05:25:10.116Z,7.65
2023-04-23T05:25:46.423Z,7.53
2023-04-23T05:26:21.054Z,8.35
2023-04-23T05:26:53.787Z,8.40
2023-04-23T05:27:28.944Z,7.75
2023-04-23T05:28:02.556Z,7.35
2023-04-23T05:28:36.125Z,7.68
2023-04-23T05:29:11.312Z,7.88
2023-04-23T05:29:45.415Z,7.30
2023-04-23T05:30:19.336Z,7.47
2023-04-23T05:30:54.771Z,7.53
2023-04-23T05:31:29.547Z,7.93
2023-04-23T05:32:04.358Z,7.43
2023-04-23T05:32:37.873Z,8.05
2023-04-23T05:33:12.654Z,7.35
2023-04-23T05:33:50.365Z,7.30
2023-04-23T05:34:26.484Z,7.38
2023-04-23T05:35:01.170Z,7.55
2023-04-23T05:35:36.502Z,6.78
2023-04-23T05:36:10.656Z,7.40
2023-04-23T05:36:44.653Z,7.22
2023-04-23T05:37:19.643Z,7.95
2023-04-23T05:37:53.040Z,7.82
2023-04-23T05:38:29.516Z,7.38
2023-04-23T05:39:03.512Z,7.95
2023-04-23T05:39:36.806Z,8.63
2023-04-23T05:40:12.241Z,7.40
2023-04-23T05:40:46.957Z,7.80
2023-04-23T05:41:22.056Z,8.32
2023-04-23T05:41:58.882Z,8.07
2023-04-23T05:42:33.818Z,7.93
2023-04-23T05:43:07.756Z,8.60
2023-04-23T05:43:43.612Z,8.80
2023-04-23T05:44:17.663Z,7.65
2023-04-23T05:44:52.687Z,8.15
2023-04-23T05:45:28.120Z,8.68
2023-04-23T05:46:19.994Z,8.73
2023-04-23T05:46:56.617Z,7.78
2023-04-23T05:47:31.248Z,7.65
2023-04-23T05:48:04.685Z,8.63
2023-04-23T05:48:40.269Z,7.90
2023-04-23T05:49:14.183Z,8.70
2023-04-23T05:49:52.095Z,7.38
2023-04-23T05:50:28.772Z,6.68
2023-04-23T05:51:03.507Z,6.10
2023-04-23T05:51:37.244Z,5.78
2023-04-23T05:52:11.616Z,5.78
2023-04-23T05:52:45.428Z,6.43
2023-04-23T05:53:19.108Z,5.93
2023-04-23T05:53:56.264Z,6.63
2023-04-23T05:54:30.421Z,4.10
2023-04-23T05:55:03.343Z,2.72
2023-04-23T05:55:38.608Z,2.20
2023-04-23T05:56:14.746Z,1.90
2023-04-23T05:56:48.352Z,2.20
2023-04-23T05:57:23.112Z,2.08
2023-04-23T05:57:59.836Z,2.53
2023-04-23T05:58:35.822Z,2.00
2023-04-23T05:59:09.338Z,1.70
2023-04-23T05:59:42.960Z,2.00
2023-04-23T06:00:18.726Z,1.70
2023-04-23T06:00:53.863Z,1.50
2023-04-23T06:01:28.967Z,1.58
2023-04-23T06:02:03.446Z,1.60
2023-04-23T06:02:37.271Z,1.65
2023-04-23T06:03:11.629Z,1.95
2023-04-23T06:03:47.249Z,2.00
2023-04-23T06:04:22.525Z,1.90
2023-04-23T06:04:56.742Z,2.08
2023-04-23T06:05:31.976Z,1.98
2023-04-23T06:06:06.475Z,1.70
2023-04-23T06:06:40.945Z,1.70
2023-04-23T06:07:16.436Z,1.70
2023-04-23T06:07:50.973Z,2.60
2023-04-23T06:08:26.034Z,4.32
2023-04-23T06:09:00.739Z,1.92
2023-04-23T06:09:34.914Z,1.75
2023-04-23T06:10:11.522Z,2.10
2023-04-23T06:10:46.694Z,1.83
2023-04-23T06:11:23.113Z,3.38
2023-04-23T06:11:56.703Z,3.22
2023-04-23T06:12:32.361Z,2.47
2023-04-23T06:13:07.006Z,1.90
2023-04-23T06:13:43.683Z,1.42
2023-04-23T06:14:18.725Z,1.65
2023-04-23T06:14:51.751Z,2.10
2023-04-23T06:15:28.610Z,2.10
2023-04-23T06:16:03.360Z,1.88
2023-04-23T06:16:38.291Z,1.65
2023-04-23T06:17:14.769Z,1.90
2023-04-23T06:17:48.487Z,1.92
2023-04-23T06:18:24.533Z,2.00
2023-04-23T06:18:58.589Z,1.58
2023-04-23T06:19:32.197Z,2.00
2023-04-23T06:20:07.150Z,1.70
2023-04-23T06:20:41.268Z,2.22
2023-04-23T06:21:17.061Z,1.42
2023-04-23T06:21:53.349Z,1.40
2023-04-23T06:22:26.728Z,1.77
2023-04-23T06:23:05.241Z,2.17
2023-04-23T06:23:39.471Z,1.98
2023-04-23T06:24:13.150Z,2.03
2023-04-23T06:24:47.320Z,1.90
2023-04-23T06:25:22.263Z,1.58
2023-04-23T06:25:55.281Z,1.70
2023-04-23T06:26:32.166Z,2.00
2023-04-23T06:27:12.580Z,1.77
2023-04-23T06:27:50.460Z,2.03
2023-04-23T06:28:29.231Z,1.52
2023-04-23T06:29:25.239Z,1.98
2023-04-23T06:30:12.157Z,1.85
2023-04-23T06:30:45.303Z,1.85
2023-04-23T06:31:20.000Z,1.98
2023-04-23T06:31:56.854Z,1.98
2023-04-23T06:32:31.167Z,1.60
2023-04-23T06:33:05.830Z,1.65
2023-04-23T06:33:40.600Z,1.92
2023-04-23T06:34:14.211Z,1.90
2023-04-23T06:35:00.216Z,1.80
2023-04-23T06:35:36.894Z,5.63
2023-04-23T06:36:11.180Z,2.33
2023-04-23T06:36:45.828Z,2.08
2023-04-23T06:37:21.692Z,2.00
2023-04-23T06:37:57.066Z,1.73
2023-04-23T06:38:30.446Z,1.80
2023-04-23T06:39:05.911Z,1.65
2023-04-23T06:39:40.498Z,1.70
2023-04-23T06:40:13.629Z,2.00
2023-04-23T06:40:48.240Z,2.08
2023-04-23T06:41:22.234Z,1.80
2023-04-23T06:42:09.432Z,1.90
2023-04-23T06:42:56.554Z,1.85
2023-04-23T06:43:50.424Z,1.50
2023-04-23T06:44:39.601Z,1.73
2023-04-23T06:45:16.080Z,1.85
2023-04-23T06:45:50.308Z,1.58
2023-04-23T06:46:23.145Z,1.95
2023-04-23T06:46:58.531Z,1.80
2023-04-23T06:47:32.923Z,1.83
2023-04-23T06:48:07.358Z,2.28
2023-04-23T06:48:41.685Z,1.98
2023-04-23T06:49:16.762Z,1.70
2023-04-23T06:49:50.422Z,1.85
2023-04-23T06:50:26.096Z,2.38
2023-04-23T06:51:36.816Z,1.70
2023-04-23T06:52:10.478Z,2.03
2023-04-23T06:52:45.166Z,2.50
2023-04-23T06:53:21.231Z,2.38
2023-04-23T06:53:55.803Z,1.90
2023-04-23T06:54:29.812Z,1.92
2023-04-23T06:55:03.926Z,1.70
2023-04-23T06:55:37.614Z,1.85
2023-04-23T06:56:11.812Z,1.95
2023-04-23T06:56:48.624Z,2.30
2023-04-23T06:57:23.106Z,1.92
2023-04-23T06:57:57.959Z,2.00
2023-04-23T06:58:32.934Z,1.83
2023-04-23T06:59:15.234Z,1.75
2023-04-23T07:00:32.184Z,2.17
2023-04-23T07:01:08.450Z,1.80
2023-04-23T07:01:44.007Z,1.83
2023-04-23T07:02:19.284Z,2.08
2023-04-23T07:02:53.839Z,1.77
2023-04-23T07:03:28.922Z,2.20
2023-04-23T07:04:03.122Z,2.15
2023-04-23T07:04:37.055Z,2.50
2023-04-23T07:05:12.067Z,2.10
2023-04-23T07:05:46.176Z,2.25
2023-04-23T07:06:20.650Z,1.90
2023-04-23T07:06:55.463Z,2.20
2023-04-23T07:07:30.561Z,2.10
2023-04-23T07:08:06.390Z,2.42
2023-04-23T07:08:40.960Z,2.33
2023-04-23T07:09:15.004Z,2.45
2023-04-23T07:09:49.184Z,2.03
2023-04-23T07:10:23.520Z,2.17
2023-04-23T07:10:58.386Z,2.08
2023-04-23T07:11:31.994Z,2.10
2023-04-23T07:12:07.540Z,2.42
2023-04-23T07:12:42.656Z,2.05
2023-04-23T07:13:17.136Z,2.70
2023-04-23T07:13:51.625Z,2.03
2023-04-23T07:14:29.352Z,2.17
2023-04-23T07:15:02.458Z,2.05
2023-04-23T07:15:38.140Z,2.10
2023-04-23T07:16:12.359Z,2.13
2023-04-23T07:16:45.304Z,2.17
2023-04-23T07:17:20.833Z,2.00
2023-04-23T07:17:57.523Z,1.63
2023-04-23T07:18:32.197Z,2.17
2023-04-23T07:19:07.007Z,1.90
2023-04-23T07:19:41.459Z,1.90
2023-04-23T07:20:16.217Z,1.80
2023-04-23T07:20:50.127Z,1.85
2023-04-23T07:21:26.134Z,1.63
2023-04-23T07:22:01.694Z,2.15
2023-04-23T07:22:34.994Z,2.03
2023-04-23T07:23:09.893Z,1.98
2023-04-23T07:23:44.132Z,1.85
2023-04-23T07:24:18.299Z,2.25
2023-04-23T07:24:53.477Z,1.95
2023-04-23T07:25:27.895Z,1.77
2023-04-23T07:26:00.973Z,1.60
2023-04-23T07:26:35.988Z,1.85
2023-04-23T07:27:10.481Z,2.03
2023-04-23T07:27:46.017Z,2.13
2023-04-23T07:28:22.502Z,1.80
2023-04-23T07:28:56.695Z,2.33
2023-04-23T07:29:31.163Z,2.00
2023-04-23T07:30:07.822Z,2.20
2023-04-23T07:30:40.836Z,2.03
2023-04-23T07:31:16.119Z,2.08
2023-04-23T07:31:51.468Z,1.92
2023-04-23T07:32:28.288Z,1.88
2023-04-23T07:33:03.417Z,2.65
2023-04-23T07:33:36.878Z,2.40
2023-04-23T07:34:10.392Z,2.20
2023-04-23T07:34:45.182Z,1.83
2023-04-23T07:35:19.860Z,2.65
2023-04-23T07:35:55.352Z,2.47
2023-04-23T07:36:29.908Z,2.10
2023-04-23T07:37:04.767Z,2.22
2023-04-23T07:37:38.095Z,2.20
2023-04-23T07:38:12.330Z,2.45
2023-04-23T07:38:46.481Z,2.20
2023-04-23T07:39:20.782Z,2.33
2023-04-23T07:39:54.654Z,2.58
2023-04-23T07:40:28.657Z,2.40
2023-04-23T07:41:02.850Z,2.28
2023-04-23T07:41:37.636Z,2.60
2023-04-23T07:42:13.467Z,2.42
2023-04-23T07:42:48.341Z,2.70
2023-04-23T07:43:23.602Z,2.75
2023-04-23T07:43:58.418Z,2.67
2023-04-23T07:44:33.920Z,2.97